Terminal Aerodrome Forecast
Issued by NWS

Home | Current Version | Previous Version | Text Only | Print | Product List | Glossary On
Versions: 1 2 3 4 5 6 7 8 9 10 11 12 13
669
FTUS45 KRIW 162326
TAFWRL
TAF
KWRL 162326Z 1700/1724 35006KT 3/4SM -SN BR BKN003 OVC015
     FM170200 34013KT 4SM -SN SCT008 BKN020 OVC030
     FM170400 30008KT P6SM BKN030
     FM170900 17006KT P6SM VCFG SCT005
     FM171800 19006KT P6SM SCT090=

USA.gov is the U.S. government's official web portal to all federal, state and local government web resources and services.